sensor_id;sensor_type;location;lat;lon;timestamp;P1;durP1;ratioP1;P2;durP2;ratioP2
19543;SDS011;9917;51.256;7.152;2022-09-30T00:01:58;6.60;;;5.13;;
19543;SDS011;9917;51.256;7.152;2022-09-30T00:04:23;11.43;;;5.03;;
19543;SDS011;9917;51.256;7.152;2022-09-30T00:06:51;6.77;;;4.93;;
19543;SDS011;9917;51.256;7.152;2022-09-30T00:09:18;7.73;;;4.70;;
19543;SDS011;9917;51.256;7.152;2022-09-30T00:11:44;8.67;;;4.70;;
19543;SDS011;9917;51.256;7.152;2022-09-30T00:14:12;9.50;;;4.90;;
19543;SDS011;9917;51.256;7.152;2022-09-30T00:16:40;9.77;;;4.87;;
19543;SDS011;9917;51.256;7.152;2022-09-30T00:19:06;7.60;;;5.07;;
19543;SDS011;9917;51.256;7.152;2022-09-30T00:21:32;12.73;;;5.50;;
19543;SDS011;9917;51.256;7.152;2022-09-30T00:23:59;9.67;;;4.90;;
19543;SDS011;9917;51.256;7.152;2022-09-30T00:26:25;7.38;;;4.72;;
19543;SDS011;9917;51.256;7.152;2022-09-30T00:28:52;9.57;;;4.97;;
19543;SDS011;9917;51.256;7.152;2022-09-30T00:31:20;7.33;;;4.63;;
19543;SDS011;9917;51.256;7.152;2022-09-30T00:33:47;9.67;;;5.03;;
19543;SDS011;9917;51.256;7.152;2022-09-30T00:36:14;8.20;;;4.83;;
19543;SDS011;9917;51.256;7.152;2022-09-30T00:38:39;8.50;;;4.80;;
19543;SDS011;9917;51.256;7.152;2022-09-30T00:41:06;8.27;;;4.63;;
19543;SDS011;9917;51.256;7.152;2022-09-30T00:43:39;7.50;;;4.80;;
19543;SDS011;9917;51.256;7.152;2022-09-30T00:46:06;8.37;;;4.57;;
19543;SDS011;9917;51.256;7.152;2022-09-30T00:48:38;9.93;;;4.90;;
19543;SDS011;9917;51.256;7.152;2022-09-30T00:51:04;7.73;;;5.00;;
19543;SDS011;9917;51.256;7.152;2022-09-30T00:53:33;8.13;;;5.00;;
19543;SDS011;9917;51.256;7.152;2022-09-30T00:56:03;8.83;;;5.13;;
19543;SDS011;9917;51.256;7.152;2022-09-30T00:58:36;7.93;;;5.03;;
19543;SDS011;9917;51.256;7.152;2022-09-30T01:01:06;9.30;;;5.50;;
19543;SDS011;9917;51.256;7.152;2022-09-30T01:03:32;9.73;;;5.13;;
19543;SDS011;9917;51.256;7.152;2022-09-30T01:06:02;7.37;;;4.93;;
19543;SDS011;9917;51.256;7.152;2022-09-30T01:08:29;7.93;;;4.50;;
19543;SDS011;9917;51.256;7.152;2022-09-30T01:10:56;10.30;;;5.33;;
19543;SDS011;9917;51.256;7.152;2022-09-30T01:13:23;9.37;;;4.77;;
19543;SDS011;9917;51.256;7.152;2022-09-30T01:15:54;7.63;;;5.10;;
19543;SDS011;9917;51.256;7.152;2022-09-30T01:18:31;9.23;;;4.87;;
19543;SDS011;9917;51.256;7.152;2022-09-30T01:21:16;8.83;;;4.63;;
19543;SDS011;9917;51.256;7.152;2022-09-30T01:24:10;8.90;;;4.80;;
19543;SDS011;9917;51.256;7.152;2022-09-30T01:26:52;8.80;;;5.37;;
19543;SDS011;9917;51.256;7.152;2022-09-30T01:29:59;7.97;;;5.00;;
19543;SDS011;9917;51.256;7.152;2022-09-30T01:32:38;9.03;;;5.17;;
19543;SDS011;9917;51.256;7.152;2022-09-30T01:35:28;6.28;;;4.47;;
19543;SDS011;9917;51.256;7.152;2022-09-30T01:38:02;8.90;;;5.23;;
19543;SDS011;9917;51.256;7.152;2022-09-30T01:40:39;9.83;;;5.27;;
19543;SDS011;9917;51.256;7.152;2022-09-30T01:43:11;8.03;;;5.97;;
19543;SDS011;9917;51.256;7.152;2022-09-30T01:45:45;7.97;;;5.30;;
19543;SDS011;9917;51.256;7.152;2022-09-30T01:48:21;7.77;;;4.90;;
19543;SDS011;9917;51.256;7.152;2022-09-30T01:50:51;7.57;;;4.90;;
19543;SDS011;9917;51.256;7.152;2022-09-30T01:53:22;9.43;;;5.00;;
19543;SDS011;9917;51.256;7.152;2022-09-30T01:55:56;10.00;;;4.90;;
19543;SDS011;9917;51.256;7.152;2022-09-30T01:58:27;7.63;;;5.07;;
19543;SDS011;9917;51.256;7.152;2022-09-30T02:01:00;7.77;;;5.17;;
19543;SDS011;9917;51.256;7.152;2022-09-30T02:03:31;9.00;;;4.73;;
19543;SDS011;9917;51.256;7.152;2022-09-30T02:06:01;7.70;;;5.07;;
19543;SDS011;9917;51.256;7.152;2022-09-30T02:08:33;7.13;;;4.53;;
19543;SDS011;9917;51.256;7.152;2022-09-30T02:11:04;8.47;;;5.43;;
19543;SDS011;9917;51.256;7.152;2022-09-30T02:13:35;6.60;;;5.00;;
19543;SDS011;9917;51.256;7.152;2022-09-30T02:16:06;9.43;;;4.90;;
19543;SDS011;9917;51.256;7.152;2022-09-30T02:18:37;7.80;;;4.93;;
19543;SDS011;9917;51.256;7.152;2022-09-30T02:21:06;7.53;;;4.60;;
19543;SDS011;9917;51.256;7.152;2022-09-30T02:23:35;8.33;;;5.17;;
19543;SDS011;9917;51.256;7.152;2022-09-30T02:26:06;8.63;;;5.10;;
19543;SDS011;9917;51.256;7.152;2022-09-30T02:28:37;7.77;;;5.30;;
19543;SDS011;9917;51.256;7.152;2022-09-30T02:31:06;8.20;;;4.37;;
19543;SDS011;9917;51.256;7.152;2022-09-30T02:33:34;6.67;;;4.73;;
19543;SDS011;9917;51.256;7.152;2022-09-30T02:36:06;7.93;;;4.87;;
19543;SDS011;9917;51.256;7.152;2022-09-30T02:38:39;6.87;;;4.67;;
19543;SDS011;9917;51.256;7.152;2022-09-30T02:41:10;8.07;;;4.90;;
19543;SDS011;9917;51.256;7.152;2022-09-30T02:43:38;7.87;;;5.00;;
19543;SDS011;9917;51.256;7.152;2022-09-30T02:46:06;7.13;;;4.50;;
19543;SDS011;9917;51.256;7.152;2022-09-30T02:48:43;8.20;;;5.03;;
19543;SDS011;9917;51.256;7.152;2022-09-30T02:51:14;6.37;;;4.60;;
19543;SDS011;9917;51.256;7.152;2022-09-30T02:53:47;7.13;;;4.70;;
19543;SDS011;9917;51.256;7.152;2022-09-30T02:56:18;6.47;;;4.90;;
19543;SDS011;9917;51.256;7.152;2022-09-30T02:58:50;8.43;;;5.40;;
19543;SDS011;9917;51.256;7.152;2022-09-30T03:01:19;7.80;;;4.60;;
19543;SDS011;9917;51.256;7.152;2022-09-30T03:03:46;7.40;;;5.00;;
19543;SDS011;9917;51.256;7.152;2022-09-30T03:06:15;8.57;;;4.97;;
19543;SDS011;9917;51.256;7.152;2022-09-30T03:08:41;6.37;;;5.13;;
19543;SDS011;9917;51.256;7.152;2022-09-30T03:11:09;6.90;;;5.00;;
19543;SDS011;9917;51.256;7.152;2022-09-30T03:16:47;5.67;;;4.73;;
19543;SDS011;9917;51.256;7.152;2022-09-30T03:19:34;7.27;;;4.90;;
19543;SDS011;9917;51.256;7.152;2022-09-30T03:22:20;7.73;;;5.10;;
19543;SDS011;9917;51.256;7.152;2022-09-30T03:25:00;8.40;;;5.03;;
19543;SDS011;9917;51.256;7.152;2022-09-30T03:27:40;13.97;;;5.33;;
19543;SDS011;9917;51.256;7.152;2022-09-30T03:30:15;8.07;;;5.07;;
19543;SDS011;9917;51.256;7.152;2022-09-30T03:32:47;7.57;;;5.17;;
19543;SDS011;9917;51.256;7.152;2022-09-30T03:35:27;8.63;;;5.23;;
19543;SDS011;9917;51.256;7.152;2022-09-30T03:37:58;10.13;;;5.37;;
19543;SDS011;9917;51.256;7.152;2022-09-30T03:40:29;7.67;;;4.83;;
19543;SDS011;9917;51.256;7.152;2022-09-30T03:43:02;9.00;;;5.17;;
19543;SDS011;9917;51.256;7.152;2022-09-30T03:45:33;7.90;;;5.13;;
19543;SDS011;9917;51.256;7.152;2022-09-30T03:48:02;7.07;;;4.93;;
19543;SDS011;9917;51.256;7.152;2022-09-30T03:50:32;7.93;;;5.10;;
19543;SDS011;9917;51.256;7.152;2022-09-30T03:53:00;8.47;;;5.17;;
19543;SDS011;9917;51.256;7.152;2022-09-30T03:55:27;7.37;;;5.00;;
19543;SDS011;9917;51.256;7.152;2022-09-30T03:57:53;9.83;;;5.30;;
19543;SDS011;9917;51.256;7.152;2022-09-30T04:00:19;8.57;;;5.27;;
19543;SDS011;9917;51.256;7.152;2022-09-30T04:02:45;7.20;;;5.07;;
19543;SDS011;9917;51.256;7.152;2022-09-30T04:05:10;9.70;;;5.13;;
19543;SDS011;9917;51.256;7.152;2022-09-30T04:07:38;7.27;;;5.27;;
19543;SDS011;9917;51.256;7.152;2022-09-30T04:10:03;10.67;;;5.53;;
19543;SDS011;9917;51.256;7.152;2022-09-30T04:12:30;6.93;;;5.57;;
19543;SDS011;9917;51.256;7.152;2022-09-30T04:14:55;97.67;;;50.40;;
19543;SDS011;9917;51.256;7.152;2022-09-30T04:17:21;95.33;;;49.87;;
19543;SDS011;9917;51.256;7.152;2022-09-30T04:19:47;96.23;;;48.70;;
19543;SDS011;9917;51.256;7.152;2022-09-30T04:22:13;44.50;;;24.30;;
19543;SDS011;9917;51.256;7.152;2022-09-30T04:24:40;26.33;;;14.33;;
19543;SDS011;9917;51.256;7.152;2022-09-30T04:27:06;7.10;;;5.60;;
19543;SDS011;9917;51.256;7.152;2022-09-30T04:29:32;8.97;;;5.60;;
19543;SDS011;9917;51.256;7.152;2022-09-30T04:31:57;7.87;;;5.63;;
19543;SDS011;9917;51.256;7.152;2022-09-30T04:34:23;10.43;;;6.23;;
19543;SDS011;9917;51.256;7.152;2022-09-30T04:36:49;9.17;;;6.17;;
19543;SDS011;9917;51.256;7.152;2022-09-30T04:39:15;9.47;;;5.37;;
19543;SDS011;9917;51.256;7.152;2022-09-30T04:41:42;8.47;;;5.27;;
19543;SDS011;9917;51.256;7.152;2022-09-30T04:44:07;7.23;;;5.40;;
19543;SDS011;9917;51.256;7.152;2022-09-30T04:46:33;10.63;;;5.20;;
19543;SDS011;9917;51.256;7.152;2022-09-30T04:49:00;8.73;;;5.60;;
19543;SDS011;9917;51.256;7.152;2022-09-30T04:51:26;10.33;;;5.77;;
19543;SDS011;9917;51.256;7.152;2022-09-30T04:53:52;8.43;;;5.70;;
19543;SDS011;9917;51.256;7.152;2022-09-30T04:56:17;7.93;;;5.50;;
19543;SDS011;9917;51.256;7.152;2022-09-30T04:58:44;11.23;;;6.00;;
19543;SDS011;9917;51.256;7.152;2022-09-30T05:01:11;9.47;;;5.80;;
19543;SDS011;9917;51.256;7.152;2022-09-30T05:03:37;6.93;;;5.00;;
19543;SDS011;9917;51.256;7.152;2022-09-30T05:06:04;10.60;;;5.33;;
19543;SDS011;9917;51.256;7.152;2022-09-30T05:08:30;6.73;;;5.20;;
19543;SDS011;9917;51.256;7.152;2022-09-30T05:10:57;9.43;;;5.47;;
19543;SDS011;9917;51.256;7.152;2022-09-30T05:13:24;8.73;;;5.63;;
19543;SDS011;9917;51.256;7.152;2022-09-30T05:15:51;9.40;;;5.70;;
19543;SDS011;9917;51.256;7.152;2022-09-30T05:18:17;9.37;;;6.10;;
19543;SDS011;9917;51.256;7.152;2022-09-30T05:20:43;8.53;;;5.90;;
19543;SDS011;9917;51.256;7.152;2022-09-30T05:23:09;8.63;;;5.47;;
19543;SDS011;9917;51.256;7.152;2022-09-30T05:25:35;7.17;;;4.90;;
19543;SDS011;9917;51.256;7.152;2022-09-30T05:28:00;7.40;;;5.43;;
19543;SDS011;9917;51.256;7.152;2022-09-30T05:30:26;9.47;;;5.57;;
19543;SDS011;9917;51.256;7.152;2022-09-30T05:32:53;8.70;;;6.07;;
19543;SDS011;9917;51.256;7.152;2022-09-30T05:35:19;11.07;;;6.60;;
19543;SDS011;9917;51.256;7.152;2022-09-30T05:37:45;9.87;;;6.17;;
19543;SDS011;9917;51.256;7.152;2022-09-30T05:40:10;10.77;;;6.03;;
19543;SDS011;9917;51.256;7.152;2022-09-30T05:42:36;8.20;;;6.10;;
19543;SDS011;9917;51.256;7.152;2022-09-30T05:45:02;9.47;;;5.97;;
19543;SDS011;9917;51.256;7.152;2022-09-30T05:47:28;10.50;;;6.57;;
19543;SDS011;9917;51.256;7.152;2022-09-30T05:49:55;8.97;;;5.90;;
19543;SDS011;9917;51.256;7.152;2022-09-30T05:52:21;7.87;;;6.17;;
19543;SDS011;9917;51.256;7.152;2022-09-30T05:54:46;10.63;;;6.13;;
19543;SDS011;9917;51.256;7.152;2022-09-30T05:57:12;11.37;;;6.40;;
19543;SDS011;9917;51.256;7.152;2022-09-30T05:59:38;13.07;;;7.60;;
19543;SDS011;9917;51.256;7.152;2022-09-30T06:02:03;8.40;;;6.20;;
19543;SDS011;9917;51.256;7.152;2022-09-30T06:04:30;8.37;;;6.27;;
19543;SDS011;9917;51.256;7.152;2022-09-30T06:06:57;9.63;;;6.27;;
19543;SDS011;9917;51.256;7.152;2022-09-30T06:09:23;9.33;;;6.40;;
19543;SDS011;9917;51.256;7.152;2022-09-30T06:11:48;10.17;;;6.10;;
19543;SDS011;9917;51.256;7.152;2022-09-30T06:14:14;10.57;;;5.80;;
19543;SDS011;9917;51.256;7.152;2022-09-30T06:16:40;13.30;;;6.10;;
19543;SDS011;9917;51.256;7.152;2022-09-30T06:19:06;11.27;;;6.87;;
19543;SDS011;9917;51.256;7.152;2022-09-30T06:21:31;9.27;;;6.43;;
19543;SDS011;9917;51.256;7.152;2022-09-30T06:23:58;9.47;;;6.83;;
19543;SDS011;9917;51.256;7.152;2022-09-30T06:26:24;11.57;;;6.63;;
19543;SDS011;9917;51.256;7.152;2022-09-30T06:28:50;13.13;;;7.03;;
19543;SDS011;9917;51.256;7.152;2022-09-30T06:31:16;8.63;;;6.37;;
19543;SDS011;9917;51.256;7.152;2022-09-30T06:33:42;10.27;;;6.67;;
19543;SDS011;9917;51.256;7.152;2022-09-30T06:36:08;9.70;;;6.87;;
19543;SDS011;9917;51.256;7.152;2022-09-30T06:38:33;11.23;;;7.80;;
19543;SDS011;9917;51.256;7.152;2022-09-30T06:41:01;11.17;;;7.30;;
19543;SDS011;9917;51.256;7.152;2022-09-30T06:43:28;11.17;;;7.73;;
19543;SDS011;9917;51.256;7.152;2022-09-30T06:45:54;15.67;;;8.27;;
19543;SDS011;9917;51.256;7.152;2022-09-30T06:48:20;11.27;;;7.67;;
19543;SDS011;9917;51.256;7.152;2022-09-30T06:50:45;11.40;;;8.10;;
19543;SDS011;9917;51.256;7.152;2022-09-30T06:53:11;14.67;;;8.90;;
19543;SDS011;9917;51.256;7.152;2022-09-30T06:55:37;11.93;;;8.33;;
19543;SDS011;9917;51.256;7.152;2022-09-30T06:58:05;14.80;;;8.67;;
19543;SDS011;9917;51.256;7.152;2022-09-30T07:00:31;15.50;;;9.03;;
19543;SDS011;9917;51.256;7.152;2022-09-30T07:02:56;13.10;;;9.30;;
19543;SDS011;9917;51.256;7.152;2022-09-30T07:05:22;16.13;;;9.43;;
19543;SDS011;9917;51.256;7.152;2022-09-30T07:07:48;14.40;;;9.47;;
19543;SDS011;9917;51.256;7.152;2022-09-30T07:10:14;13.97;;;10.27;;
19543;SDS011;9917;51.256;7.152;2022-09-30T07:12:39;12.87;;;9.20;;
19543;SDS011;9917;51.256;7.152;2022-09-30T07:15:07;12.60;;;9.63;;
19543;SDS011;9917;51.256;7.152;2022-09-30T07:17:33;17.27;;;9.17;;
19543;SDS011;9917;51.256;7.152;2022-09-30T07:20:00;12.77;;;8.97;;
19543;SDS011;9917;51.256;7.152;2022-09-30T07:22:25;14.53;;;8.97;;
19543;SDS011;9917;51.256;7.152;2022-09-30T07:24:51;15.37;;;9.10;;
19543;SDS011;9917;51.256;7.152;2022-09-30T07:27:17;12.43;;;8.67;;
19543;SDS011;9917;51.256;7.152;2022-09-30T07:29:43;11.73;;;8.10;;
19543;SDS011;9917;51.256;7.152;2022-09-30T07:32:11;10.70;;;7.00;;
19543;SDS011;9917;51.256;7.152;2022-09-30T07:34:37;13.50;;;7.10;;
19543;SDS011;9917;51.256;7.152;2022-09-30T07:37:03;14.50;;;6.63;;
19543;SDS011;9917;51.256;7.152;2022-09-30T07:39:29;9.02;;;6.05;;
19543;SDS011;9917;51.256;7.152;2022-09-30T07:41:54;10.52;;;6.00;;
19543;SDS011;9917;51.256;7.152;2022-09-30T07:44:20;9.82;;;5.75;;
19543;SDS011;9917;51.256;7.152;2022-09-30T07:46:46;10.50;;;5.80;;
19543;SDS011;9917;51.256;7.152;2022-09-30T07:49:14;8.93;;;5.82;;
19543;SDS011;9917;51.256;7.152;2022-09-30T07:51:41;10.20;;;5.75;;
19543;SDS011;9917;51.256;7.152;2022-09-30T07:54:08;8.70;;;5.75;;
19543;SDS011;9917;51.256;7.152;2022-09-30T07:56:37;7.55;;;5.32;;
19543;SDS011;9917;51.256;7.152;2022-09-30T07:59:03;11.00;;;5.32;;
19543;SDS011;9917;51.256;7.152;2022-09-30T08:01:30;10.77;;;5.53;;
19543;SDS011;9917;51.256;7.152;2022-09-30T08:03:57;9.50;;;5.90;;
19543;SDS011;9917;51.256;7.152;2022-09-30T08:06:27;9.88;;;5.20;;
19543;SDS011;9917;51.256;7.152;2022-09-30T08:08:55;8.50;;;5.43;;
19543;SDS011;9917;51.256;7.152;2022-09-30T08:11:22;11.18;;;5.20;;
19543;SDS011;9917;51.256;7.152;2022-09-30T08:13:50;8.93;;;5.38;;
19543;SDS011;9917;51.256;7.152;2022-09-30T08:16:17;10.05;;;5.45;;
19543;SDS011;9917;51.256;7.152;2022-09-30T08:18:43;8.63;;;5.15;;
19543;SDS011;9917;51.256;7.152;2022-09-30T08:21:08;8.50;;;4.93;;
19543;SDS011;9917;51.256;7.152;2022-09-30T08:23:35;8.98;;;5.63;;
19543;SDS011;9917;51.256;7.152;2022-09-30T08:26:02;7.90;;;5.00;;
19543;SDS011;9917;51.256;7.152;2022-09-30T08:28:28;11.80;;;4.78;;
19543;SDS011;9917;51.256;7.152;2022-09-30T08:30:54;7.53;;;4.97;;
19543;SDS011;9917;51.256;7.152;2022-09-30T08:33:20;10.20;;;4.32;;
19543;SDS011;9917;51.256;7.152;2022-09-30T08:35:46;6.35;;;4.03;;
19543;SDS011;9917;51.256;7.152;2022-09-30T08:38:11;5.05;;;3.15;;
19543;SDS011;9917;51.256;7.152;2022-09-30T08:40:46;6.57;;;3.88;;
19543;SDS011;9917;51.256;7.152;2022-09-30T08:43:21;6.53;;;4.03;;
19543;SDS011;9917;51.256;7.152;2022-09-30T08:45:57;6.13;;;3.45;;
19543;SDS011;9917;51.256;7.152;2022-09-30T08:48:36;4.78;;;3.17;;
19543;SDS011;9917;51.256;7.152;2022-09-30T08:51:13;9.18;;;3.83;;
19543;SDS011;9917;51.256;7.152;2022-09-30T08:53:49;7.88;;;3.42;;
19543;SDS011;9917;51.256;7.152;2022-09-30T08:56:18;5.85;;;3.65;;
19543;SDS011;9917;51.256;7.152;2022-09-30T08:58:47;7.47;;;3.28;;
19543;SDS011;9917;51.256;7.152;2022-09-30T09:01:18;8.88;;;3.40;;
19543;SDS011;9917;51.256;7.152;2022-09-30T09:03:48;6.97;;;4.07;;
19543;SDS011;9917;51.256;7.152;2022-09-30T09:06:16;7.38;;;3.45;;
19543;SDS011;9917;51.256;7.152;2022-09-30T09:08:49;6.88;;;3.33;;
19543;SDS011;9917;51.256;7.152;2022-09-30T09:11:31;5.80;;;3.97;;
19543;SDS011;9917;51.256;7.152;2022-09-30T09:14:10;9.68;;;3.67;;
19543;SDS011;9917;51.256;7.152;2022-09-30T09:16:48;8.57;;;3.90;;
19543;SDS011;9917;51.256;7.152;2022-09-30T09:19:28;7.78;;;3.92;;
19543;SDS011;9917;51.256;7.152;2022-09-30T09:22:01;10.57;;;4.65;;
19543;SDS011;9917;51.256;7.152;2022-09-30T09:24:28;10.20;;;5.35;;
19543;SDS011;9917;51.256;7.152;2022-09-30T09:26:59;7.57;;;3.80;;
19543;SDS011;9917;51.256;7.152;2022-09-30T09:29:37;6.30;;;3.60;;
19543;SDS011;9917;51.256;7.152;2022-09-30T09:32:10;15.43;;;3.65;;
19543;SDS011;9917;51.256;7.152;2022-09-30T09:34:38;7.03;;;3.67;;
19543;SDS011;9917;51.256;7.152;2022-09-30T09:37:07;7.88;;;4.20;;
19543;SDS011;9917;51.256;7.152;2022-09-30T09:39:43;8.70;;;3.90;;
19543;SDS011;9917;51.256;7.152;2022-09-30T09:42:32;7.53;;;4.05;;
19543;SDS011;9917;51.256;7.152;2022-09-30T09:45:09;5.75;;;3.17;;
19543;SDS011;9917;51.256;7.152;2022-09-30T09:47:38;7.70;;;3.40;;
19543;SDS011;9917;51.256;7.152;2022-09-30T09:50:07;5.78;;;3.15;;
19543;SDS011;9917;51.256;7.152;2022-09-30T09:55:38;6.93;;;2.80;;
19543;SDS011;9917;51.256;7.152;2022-09-30T09:58:06;5.63;;;2.45;;
19543;SDS011;9917;51.256;7.152;2022-09-30T10:00:34;4.78;;;2.70;;
19543;SDS011;9917;51.256;7.152;2022-09-30T10:03:01;6.00;;;2.90;;
19543;SDS011;9917;51.256;7.152;2022-09-30T10:05:29;5.35;;;2.22;;
19543;SDS011;9917;51.256;7.152;2022-09-30T10:08:07;6.60;;;3.03;;
19543;SDS011;9917;51.256;7.152;2022-09-30T10:10:40;4.75;;;2.20;;
19543;SDS011;9917;51.256;7.152;2022-09-30T10:13:20;4.40;;;2.70;;
19543;SDS011;9917;51.256;7.152;2022-09-30T10:15:47;7.10;;;2.47;;
19543;SDS011;9917;51.256;7.152;2022-09-30T10:18:18;4.40;;;2.28;;
19543;SDS011;9917;51.256;7.152;2022-09-30T10:20:51;4.15;;;2.35;;
19543;SDS011;9917;51.256;7.152;2022-09-30T10:23:20;5.47;;;2.40;;
19543;SDS011;9917;51.256;7.152;2022-09-30T10:25:54;5.25;;;2.35;;
19543;SDS011;9917;51.256;7.152;2022-09-30T10:28:24;3.88;;;2.75;;
19543;SDS011;9917;51.256;7.152;2022-09-30T10:30:52;3.97;;;2.10;;
19543;SDS011;9917;51.256;7.152;2022-09-30T10:33:23;4.93;;;2.65;;
19543;SDS011;9917;51.256;7.152;2022-09-30T10:35:58;7.43;;;3.92;;
19543;SDS011;9917;51.256;7.152;2022-09-30T10:38:30;4.72;;;2.38;;
19543;SDS011;9917;51.256;7.152;2022-09-30T10:40:56;6.55;;;3.80;;
19543;SDS011;9917;51.256;7.152;2022-09-30T10:43:25;5.20;;;2.38;;
19543;SDS011;9917;51.256;7.152;2022-09-30T10:45:55;3.72;;;2.30;;
19543;SDS011;9917;51.256;7.152;2022-09-30T10:48:22;4.28;;;2.20;;
19543;SDS011;9917;51.256;7.152;2022-09-30T10:50:49;6.20;;;2.70;;
19543;SDS011;9917;51.256;7.152;2022-09-30T10:53:16;6.13;;;2.80;;
19543;SDS011;9917;51.256;7.152;2022-09-30T10:55:45;5.18;;;2.78;;
19543;SDS011;9917;51.256;7.152;2022-09-30T10:58:21;4.25;;;2.60;;
19543;SDS011;9917;51.256;7.152;2022-09-30T11:00:54;5.30;;;3.15;;
19543;SDS011;9917;51.256;7.152;2022-09-30T11:03:26;5.10;;;2.63;;
19543;SDS011;9917;51.256;7.152;2022-09-30T11:05:58;3.35;;;2.60;;
19543;SDS011;9917;51.256;7.152;2022-09-30T11:08:25;4.93;;;2.97;;
19543;SDS011;9917;51.256;7.152;2022-09-30T11:10:58;4.75;;;2.30;;
19543;SDS011;9917;51.256;7.152;2022-09-30T11:13:28;6.70;;;3.08;;
19543;SDS011;9917;51.256;7.152;2022-09-30T11:16:05;4.63;;;2.50;;
19543;SDS011;9917;51.256;7.152;2022-09-30T11:18:40;4.40;;;2.70;;
19543;SDS011;9917;51.256;7.152;2022-09-30T11:21:11;5.63;;;2.78;;
19543;SDS011;9917;51.256;7.152;2022-09-30T11:23:42;5.30;;;2.80;;
19543;SDS011;9917;51.256;7.152;2022-09-30T11:26:11;4.93;;;2.13;;
19543;SDS011;9917;51.256;7.152;2022-09-30T11:28:49;4.85;;;2.40;;
19543;SDS011;9917;51.256;7.152;2022-09-30T11:31:24;6.28;;;2.55;;
19543;SDS011;9917;51.256;7.152;2022-09-30T11:33:58;5.28;;;2.13;;
19543;SDS011;9917;51.256;7.152;2022-09-30T11:36:37;5.63;;;2.53;;
19543;SDS011;9917;51.256;7.152;2022-09-30T11:39:23;4.88;;;2.30;;
19543;SDS011;9917;51.256;7.152;2022-09-30T11:42:12;4.13;;;2.42;;
19543;SDS011;9917;51.256;7.152;2022-09-30T11:44:45;5.43;;;2.67;;
19543;SDS011;9917;51.256;7.152;2022-09-30T11:47:19;4.72;;;2.33;;
19543;SDS011;9917;51.256;7.152;2022-09-30T11:50:06;4.75;;;2.55;;
19543;SDS011;9917;51.256;7.152;2022-09-30T11:52:41;3.58;;;2.10;;
19543;SDS011;9917;51.256;7.152;2022-09-30T11:55:22;3.08;;;2.08;;
19543;SDS011;9917;51.256;7.152;2022-09-30T11:58:08;4.55;;;2.10;;
19543;SDS011;9917;51.256;7.152;2022-09-30T12:00:38;4.63;;;1.88;;
19543;SDS011;9917;51.256;7.152;2022-09-30T12:03:10;4.38;;;1.80;;
19543;SDS011;9917;51.256;7.152;2022-09-30T12:05:40;3.30;;;1.77;;
19543;SDS011;9917;51.256;7.152;2022-09-30T12:08:10;4.13;;;1.80;;
19543;SDS011;9917;51.256;7.152;2022-09-30T12:10:41;4.20;;;1.60;;
19543;SDS011;9917;51.256;7.152;2022-09-30T12:13:11;2.38;;;1.15;;
19543;SDS011;9917;51.256;7.152;2022-09-30T12:15:41;2.90;;;1.50;;
19543;SDS011;9917;51.256;7.152;2022-09-30T12:18:11;3.72;;;1.48;;
19543;SDS011;9917;51.256;7.152;2022-09-30T12:20:40;4.13;;;1.85;;
19543;SDS011;9917;51.256;7.152;2022-09-30T12:23:13;4.00;;;1.80;;
19543;SDS011;9917;51.256;7.152;2022-09-30T12:25:45;6.00;;;1.70;;
19543;SDS011;9917;51.256;7.152;2022-09-30T12:28:20;2.47;;;1.35;;
19543;SDS011;9917;51.256;7.152;2022-09-30T12:30:55;4.70;;;1.42;;
19543;SDS011;9917;51.256;7.152;2022-09-30T12:33:35;4.80;;;1.67;;
19543;SDS011;9917;51.256;7.152;2022-09-30T12:36:21;6.75;;;1.85;;
19543;SDS011;9917;51.256;7.152;2022-09-30T12:42:13;4.13;;;2.08;;
19543;SDS011;9917;51.256;7.152;2022-09-30T12:45:06;4.93;;;2.35;;
19543;SDS011;9917;51.256;7.152;2022-09-30T12:47:46;7.25;;;2.40;;
19543;SDS011;9917;51.256;7.152;2022-09-30T12:50:15;6.30;;;2.40;;
19543;SDS011;9917;51.256;7.152;2022-09-30T12:52:45;3.15;;;2.42;;
19543;SDS011;9917;51.256;7.152;2022-09-30T12:55:16;4.70;;;1.83;;
19543;SDS011;9917;51.256;7.152;2022-09-30T12:57:46;3.97;;;1.70;;
19543;SDS011;9917;51.256;7.152;2022-09-30T13:00:14;5.05;;;1.83;;
19543;SDS011;9917;51.256;7.152;2022-09-30T13:02:42;3.90;;;2.00;;
19543;SDS011;9917;51.256;7.152;2022-09-30T13:11:20;7.38;;;3.30;;
19543;SDS011;9917;51.256;7.152;2022-09-30T13:13:57;5.43;;;2.05;;
19543;SDS011;9917;51.256;7.152;2022-09-30T13:19:29;5.13;;;2.47;;
19543;SDS011;9917;51.256;7.152;2022-09-30T13:25:11;5.22;;;2.25;;
19543;SDS011;9917;51.256;7.152;2022-09-30T13:27:39;4.05;;;1.80;;
19543;SDS011;9917;51.256;7.152;2022-09-30T13:33:04;3.90;;;1.98;;
19543;SDS011;9917;51.256;7.152;2022-09-30T13:35:49;3.05;;;1.55;;
19543;SDS011;9917;51.256;7.152;2022-09-30T13:38:16;3.60;;;1.75;;
19543;SDS011;9917;51.256;7.152;2022-09-30T13:40:44;6.03;;;2.20;;
19543;SDS011;9917;51.256;7.152;2022-09-30T13:43:15;5.63;;;2.53;;
19543;SDS011;9917;51.256;7.152;2022-09-30T13:45:45;4.80;;;1.92;;
19543;SDS011;9917;51.256;7.152;2022-09-30T13:48:15;4.82;;;2.03;;
19543;SDS011;9917;51.256;7.152;2022-09-30T13:50:45;4.38;;;2.30;;
19543;SDS011;9917;51.256;7.152;2022-09-30T13:53:15;6.90;;;2.75;;
19543;SDS011;9917;51.256;7.152;2022-09-30T13:55:47;3.38;;;2.30;;
19543;SDS011;9917;51.256;7.152;2022-09-30T13:58:21;5.03;;;2.40;;
19543;SDS011;9917;51.256;7.152;2022-09-30T14:01:01;8.15;;;2.42;;
19543;SDS011;9917;51.256;7.152;2022-09-30T14:03:38;3.72;;;2.30;;
19543;SDS011;9917;51.256;7.152;2022-09-30T14:06:19;8.52;;;3.10;;
19543;SDS011;9917;51.256;7.152;2022-09-30T14:09:02;4.90;;;2.80;;
19543;SDS011;9917;51.256;7.152;2022-09-30T14:11:46;4.25;;;2.05;;
19543;SDS011;9917;51.256;7.152;2022-09-30T14:14:27;5.38;;;2.28;;
19543;SDS011;9917;51.256;7.152;2022-09-30T14:17:12;4.20;;;2.25;;
19543;SDS011;9917;51.256;7.152;2022-09-30T14:20:08;7.50;;;1.80;;
19543;SDS011;9917;51.256;7.152;2022-09-30T14:22:49;5.72;;;2.60;;
19543;SDS011;9917;51.256;7.152;2022-09-30T14:25:16;5.40;;;1.98;;
19543;SDS011;9917;51.256;7.152;2022-09-30T14:27:53;5.50;;;2.13;;
19543;SDS011;9917;51.256;7.152;2022-09-30T14:30:25;5.47;;;1.95;;
19543;SDS011;9917;51.256;7.152;2022-09-30T14:32:52;2.65;;;1.65;;
19543;SDS011;9917;51.256;7.152;2022-09-30T14:35:21;4.03;;;1.75;;
19543;SDS011;9917;51.256;7.152;2022-09-30T14:37:49;3.28;;;1.55;;
19543;SDS011;9917;51.256;7.152;2022-09-30T14:40:19;3.15;;;1.50;;
19543;SDS011;9917;51.256;7.152;2022-09-30T14:42:50;2.97;;;1.60;;
19543;SDS011;9917;51.256;7.152;2022-09-30T14:45:19;4.32;;;1.42;;
19543;SDS011;9917;51.256;7.152;2022-09-30T14:47:49;3.30;;;1.50;;
19543;SDS011;9917;51.256;7.152;2022-09-30T14:50:16;5.15;;;1.67;;
19543;SDS011;9917;51.256;7.152;2022-09-30T14:52:45;4.50;;;1.80;;
19543;SDS011;9917;51.256;7.152;2022-09-30T14:55:23;4.15;;;1.80;;
19543;SDS011;9917;51.256;7.152;2022-09-30T14:57:51;2.55;;;1.45;;
19543;SDS011;9917;51.256;7.152;2022-09-30T15:00:20;3.67;;;1.30;;
19543;SDS011;9917;51.256;7.152;2022-09-30T15:02:50;3.78;;;1.52;;
19543;SDS011;9917;51.256;7.152;2022-09-30T15:05:19;5.63;;;1.17;;
19543;SDS011;9917;51.256;7.152;2022-09-30T15:07:50;4.38;;;1.30;;
19543;SDS011;9917;51.256;7.152;2022-09-30T15:10:16;3.03;;;1.20;;
19543;SDS011;9917;51.256;7.152;2022-09-30T15:12:45;4.13;;;1.77;;
19543;SDS011;9917;51.256;7.152;2022-09-30T15:15:24;2.60;;;1.00;;
19543;SDS011;9917;51.256;7.152;2022-09-30T15:17:56;7.05;;;1.40;;
19543;SDS011;9917;51.256;7.152;2022-09-30T15:20:23;4.43;;;2.10;;
19543;SDS011;9917;51.256;7.152;2022-09-30T15:22:53;3.53;;;0.82;;
19543;SDS011;9917;51.256;7.152;2022-09-30T15:25:20;1.95;;;0.98;;
19543;SDS011;9917;51.256;7.152;2022-09-30T15:27:46;3.38;;;1.15;;
19543;SDS011;9917;51.256;7.152;2022-09-30T15:30:21;3.08;;;0.80;;
19543;SDS011;9917;51.256;7.152;2022-09-30T15:32:56;2.03;;;1.00;;
19543;SDS011;9917;51.256;7.152;2022-09-30T15:35:23;2.17;;;0.90;;
19543;SDS011;9917;51.256;7.152;2022-09-30T15:37:49;2.40;;;1.10;;
19543;SDS011;9917;51.256;7.152;2022-09-30T15:40:16;4.60;;;1.10;;
19543;SDS011;9917;51.256;7.152;2022-09-30T15:42:46;3.38;;;1.00;;